»·PEaware :: AAY2 KLAS-KFAT

AAY2 :: KLAS-KFAT

FLIGHT INFORMATION

Flight Status: Arrived
Operator:
Allegiant Air
More flights by this operator :: More flights under this callsign
Pilot: Patricio R. (14780)
Aircraft: AIRBUS A320
(A320)
More flights by this aircraft type
Origin: KLAS McCarran Intl
United States
Destination: KFAT Fresno Yosemite Intl
United States
More flights between these airports :: More routes between these airports
Route: +CZQ
File this flight plan on PilotEdge
Remarks:
Altitude:
(Current/Filed)
30,000ft
Speed:
(Current/Filed)
427kts
Departed: 18-Aug-18 01:49 PM
Arrived: 18-Aug-18 02:43 PM
Distance/Time
Traveled:
224nm/0:54
Distance/Time
To Go:
Arrived

Flight Plot

Page will automatically refresh every two minutes.

Flight plan parsing failed; only flown route is shown


Map Options




Map Legend


Flown Route
Filed Route
Departure Airport
Arrival Airport
Navaid (VOR, NDB)
Fix

Horizontal Profiles

Position Reports

Time Latitude Longitude Heading Altitude Ground
Speed
18-Aug-18 13:27 36.084858 -115.154350 0 2116ft 0kts
18-Aug-18 13:28 36.084858 -115.154350 0 2116ft 0kts
18-Aug-18 13:29 36.084858 -115.154350 0 2116ft 0kts
18-Aug-18 13:30 36.084858 -115.154350 0 2116ft 0kts
18-Aug-18 13:31 36.084858 -115.154350 0 2116ft 0kts
18-Aug-18 13:32 36.084858 -115.154350 0 2116ft 0kts
18-Aug-18 13:33 36.084858 -115.154350 0 2116ft 0kts
18-Aug-18 13:34 36.084858 -115.154350 0 2116ft 0kts
18-Aug-18 13:35 36.084858 -115.154350 0 2116ft 0kts
18-Aug-18 13:36 36.084858 -115.154350 0 2116ft 0kts
18-Aug-18 13:37 36.084858 -115.154350 0 2116ft 0kts
18-Aug-18 13:38 36.084676 -115.154349 0 2117ft 2kts
18-Aug-18 13:39 36.084099 -115.154348 0 2119ft 0kts
18-Aug-18 13:40 36.083935 -115.153965 244 2118ft 0kts
18-Aug-18 13:41 36.083936 -115.153965 244 2118ft 0kts
18-Aug-18 13:42 36.083727 -115.154495 244 2121ft 5kts
18-Aug-18 13:43 36.081874 -115.154122 154 2123ft 6kts
18-Aug-18 13:44 36.079307 -115.153631 154 2125ft 13kts
18-Aug-18 13:45 36.078532 -115.147570 95 2105ft 23kts
18-Aug-18 13:46 36.078272 -115.140753 90 2085ft 18kts
18-Aug-18 13:47 36.078267 -115.133517 89 2063ft 21kts
18-Aug-18 13:48 36.078275 -115.126032 89 2045ft 20kts
18-Aug-18 13:49 36.077521 -115.121553 133 2039ft 0kts
18-Aug-18 13:50 36.076421 -115.135959 270 2072ft 151kts
18-Aug-18 13:51 36.076395 -115.197021 270 4500ft 189kts
18-Aug-18 13:52 36.053757 -115.263902 202 6335ft 270kts
18-Aug-18 13:53 35.980601 -115.297711 202 7012ft 284kts
18-Aug-18 13:54 35.920571 -115.363236 224 9345ft 298kts
18-Aug-18 13:55 35.886664 -115.451571 272 12724ft 310kts
18-Aug-18 13:56 35.888798 -115.558432 272 15946ft 320kts
18-Aug-18 13:57 35.890814 -115.665331 272 18209ft 346kts
18-Aug-18 13:58 35.893018 -115.791664 273 19484ft 391kts
18-Aug-18 13:59 35.895787 -115.927275 277 21550ft 400kts
18-Aug-18 14:00 35.954509 -116.038303 317 23363ft 403kts
18-Aug-18 14:01 36.036967 -116.133381 317 25098ft 410kts
18-Aug-18 14:02 36.120676 -116.230086 317 26629ft 418kts
18-Aug-18 14:03 36.206884 -116.329914 316 27890ft 430kts
18-Aug-18 14:04 36.293963 -116.431089 316 29365ft 431kts
18-Aug-18 14:05 36.380451 -116.531908 316 30163ft 424kts
18-Aug-18 14:06 36.466418 -116.632401 316 30150ft 427kts
18-Aug-18 14:07 36.552058 -116.732728 317 30149ft 426kts
18-Aug-18 14:08 36.651189 -116.814020 327 30133ft 430kts
18-Aug-18 14:09 36.753313 -116.891724 327 30147ft 431kts
18-Aug-18 14:10 36.855162 -116.969428 326 30183ft 428kts
18-Aug-18 14:11 36.956184 -117.046731 326 30146ft 426kts
18-Aug-18 14:12 37.056980 -117.124105 326 30127ft 425kts
18-Aug-18 14:13 37.157490 -117.201497 326 30317ft 426kts
18-Aug-18 14:14 37.257062 -117.278413 326 30230ft 427kts
18-Aug-18 14:15 37.360499 -117.350487 330 30342ft 426kts
18-Aug-18 14:16 37.465290 -117.418418 330 30325ft 425kts
18-Aug-18 14:17 37.569360 -117.487948 322 30315ft 423kts
18-Aug-18 14:18 37.623974 -117.613624 273 30350ft 425kts
18-Aug-18 14:19 37.591176 -117.755461 249 30210ft 429kts
18-Aug-18 14:20 37.545383 -117.893187 249 30161ft 427kts
18-Aug-18 14:21 37.499354 -118.031125 249 30153ft 427kts
18-Aug-18 14:22 37.453139 -118.168982 249 30175ft 428kts
18-Aug-18 14:23 37.406782 -118.306607 249 30192ft 429kts
18-Aug-18 14:24 37.360415 -118.443575 249 29934ft 416kts
18-Aug-18 14:25 37.315859 -118.574535 249 28059ft 400kts
18-Aug-18 14:26 37.273409 -118.698886 248 26201ft 385kts
18-Aug-18 14:27 37.231927 -118.819904 247 24352ft 372kts
18-Aug-18 14:28 37.191974 -118.935983 247 22752ft 355kts
18-Aug-18 14:29 37.153731 -119.046684 247 21066ft 344kts
18-Aug-18 14:30 37.115780 -119.156186 247 18776ft 353kts
18-Aug-18 14:31 37.075822 -119.271078 246 16302ft 360kts
18-Aug-18 14:32 37.036179 -119.384445 246 14300ft 352kts
18-Aug-18 14:33 36.980799 -119.475631 194 12854ft 325kts
18-Aug-18 14:34 36.898035 -119.456904 163 11783ft 298kts
18-Aug-18 14:35 36.821997 -119.428379 163 10280ft 276kts
18-Aug-18 14:36 36.752587 -119.402119 163 8653ft 253kts
18-Aug-18 14:37 36.686619 -119.392950 216 6802ft 244kts
18-Aug-18 14:38 36.675383 -119.468385 274 5346ft 222kts
18-Aug-18 14:39 36.684818 -119.535249 286 4407ft 175kts
18-Aug-18 14:40 36.704983 -119.588968 299 2974ft 167kts
18-Aug-18 14:41 36.727647 -119.630903 305 1789ft 138kts
18-Aug-18 14:42 36.749112 -119.668798 303 1011ft 135kts
18-Aug-18 14:43 36.770697 -119.706803 306 340ft 130kts
18-Aug-18 14:44 36.779795 -119.724042 216 340ft 15kts
18-Aug-18 14:45 36.776588 -119.725329 124 337ft 13kts
18-Aug-18 14:46 36.774043 -119.720876 125 335ft 18kts
18-Aug-18 14:47 36.772235 -119.718249 194 334ft 0kts

Navigation Log

Ident Type
Flight plan parsing failed, navigation log unavailable